Time;durP1;ratioP1;P1;durP2;ratioP2;P2;SDS_P1;SDS_P2;PMS_P1;PMS_P2;Temp;Humidity;BMP_temperature;BMP_pressure;BME280_temperature;BME280_humidity;BME280_pressure;Samples;Min_cycle;Max_cycle;Signal;HPM_P1;HPM_P2
2024/02/12 09:12:00;;;;;;;;;;;;;;;;;;5212200;23;19925;-93
2024/02/12 09:14:25;;;;;;;;;;;;;;;;;;5015546;28;20007;-94
2024/02/12 09:16:51;;;;;;;;;;;;;;;;;;5000549;28;19913;-96
2024/02/12 09:19:16;;;;;;;;;;;;;;;;;;5000149;28;19917;-93
2024/02/12 09:21:42;;;;;;;;;;;;;;;;;;4999975;28;19917;-96
2024/02/12 09:24:08;;;;;;;;;;;;;;;;;;4999944;28;19960;-95
2024/02/12 09:26:33;;;;;;;;;;;;;;;;;;4999430;28;20096;-91
2024/02/12 09:28:59;;;;;;;;;;;;;;;;;;4998524;28;19913;-87
2024/02/12 09:31:27;;;;;;;;;;;;;;;;;;5017191;28;19960;-88
2024/02/12 09:33:53;;;;;;;;;;;;;;;;;;4998246;28;20433;-89
2024/02/12 09:36:18;;;;;;;;;;;;;;;;;;4998163;28;19918;-91
2024/02/12 09:38:45;;;;;;;;;;;;;;;;;;5015706;28;20020;-91
2024/02/12 09:41:11;;;;;;;;;;;;;;;;;;5016715;28;19987;-93
2024/02/12 09:43:37;;;;;;;;;;;;;;;;;;4998850;28;19992;-92
2024/02/12 09:46:05;;;;;;;;;;;;;;;;;;4999264;28;20337;-93
2024/02/12 09:48:31;;;;;;;;;;;;;;;;;;4998456;28;20283;-88
2024/02/12 09:50:57;;;;;;;;;;;;;;;;;;5000678;28;19971;-90
2024/02/12 09:53:23;;;;;;;;;;;;;;;;;;4998498;28;20007;-92
2024/02/12 09:55:50;;;;;;;;;;;;;;;;;;4999005;28;19952;-96
2024/02/12 09:58:16;;;;;;;;;;;;;;;;;;4999314;28;19913;-96
2024/02/12 10:00:43;;;;;;;;;;;;;;;;;;4999367;28;19913;-96
2024/02/12 10:03:12;;;;;;;;;;;;;;;;;;4998675;28;19925;-96
2024/02/12 10:05:41;;;;;;;;;;;;;;;;;;4998235;28;19920;-95
2024/02/12 10:08:23;;;;;;;;;;;;;;;;;;4983760;28;19975;-96
2024/02/12 10:10:49;;;;;;;;;;;;;;;;;;4999168;28;20335;-94
2024/02/12 10:13:15;;;;;;;;;;;;;;;;;;4995175;28;19922;-94
2024/02/12 10:15:40;;;;;;;;;;;;;;;;;;4979044;28;19925;-87
2024/02/12 10:18:07;;;;;;;;;;;;;;;;;;4994877;28;19910;-86
2024/02/12 10:20:32;;;;;;;;;;;;;;;;;;4995547;28;19918;-87
2024/02/12 10:22:58;;;;;;;;;;;;;;;;;;4994128;28;19918;-87
2024/02/12 10:25:23;;;;;;;;;;;;;;;;;;5010314;28;19920;-83
2024/02/12 10:27:49;;;;;;;;;;;;;;;;;;4995127;28;19914;-83
2024/02/12 10:30:15;;;;;;;;;;;;;;;;;;4994925;28;20307;-85
2024/02/12 10:32:44;;;;;;;;;;;;;;;;;;4993836;28;19913;-87
2024/02/12 10:35:11;;;;;;;;;;;;;;;;;;4995162;28;20371;-84
2024/02/12 10:37:37;;;;;;;;;;;;;;;;;;4994898;28;19936;-85
2024/02/12 10:40:12;;;;;;;;;;;;;;;;;;4995050;28;20364;-85
2024/02/12 10:42:41;;;;;;;;;;;;;;;;;;4994778;28;19914;-86
2024/02/12 10:45:07;;;;;;;;;;;;;;;;;;4994856;28;19913;-87
2024/02/12 10:47:35;;;;;;;;;;;;;;;;;;4994814;28;19914;-85
2024/02/12 10:50:01;;;;;;;;;;;;;;;;;;4994590;28;19964;-87
2024/02/12 10:52:26;;;;;;;;;;;;;;;;;;4994635;28;19914;-86
2024/02/12 10:54:52;;;;;;;;;;;;;;;;;;4994827;28;19914;-86
2024/02/12 10:57:18;;;;;;;;;;;;;;;;;;4994732;28;19925;-86
2024/02/12 10:59:43;;;;;;;;;;;;;;;;;;4993207;28;20008;-86
2024/02/12 11:02:15;;;;;;;;;;;;;;;;;;4996050;28;19917;-96
2024/02/12 11:04:40;;;;;;;;;;;;;;;;;;4994160;28;20019;-96
2024/02/12 11:07:13;;;;;;;;;;;;;;;;;;4996283;28;19957;-96
2024/02/12 11:09:40;;;;;;;;;;;;;;;;;;4995971;28;19937;-93
2024/02/12 11:12:12;;;;;;;;;;;;;;;;;;4995666;28;20359;-96
2024/02/12 11:14:39;;;;;;;;;;;;;;;;;;5014910;28;20011;-96
2024/02/12 11:17:22;;;;;;;;;;;;;;;;;;5002517;28;19913;-96
2024/02/12 11:19:57;;;;;;;;;;;;;;;;;;5002439;28;19975;-95
2024/02/12 11:22:26;;;;;;;;;;;;;;;;;;5005997;28;20394;-95
2024/02/12 11:24:51;;;;;;;;;;;;;;;;;;5004464;28;19913;-95
2024/02/12 11:27:17;;;;;;;;;;;;;;;;;;5006764;28;19920;-95
2024/02/12 11:29:46;;;;;;;;;;;;;;;;;;5019813;28;19913;-94
2024/02/12 11:32:19;;;;;;;;;;;;;;;;;;5001983;28;19955;-95
2024/02/12 11:34:44;;;;;;;;;;;;;;;;;;5003715;28;19920;-94
2024/02/12 11:37:16;;;;;;;;;;;;;;;;;;5002755;28;20003;-93
2024/02/12 11:39:42;;;;;;;;;;;;;;;;;;5003501;28;19913;-91
2024/02/12 11:42:09;;;;;;;;;;;;;;;;;;5001556;28;19936;-95
2024/02/12 11:44:35;;;;;;;;;;;;;;;;;;5002809;28;20000;-94
2024/02/12 11:47:00;;;;;;;;;;;;;;;;;;5004434;28;19948;-94
2024/02/12 11:49:26;;;;;;;;;;;;;;;;;;5015080;28;19918;-94
2024/02/12 11:51:51;;;;;;;;;;;;;;;;;;5018238;28;19946;-91
2024/02/12 11:54:18;;;;;;;;;;;;;;;;;;5002187;28;20008;-96
2024/02/12 11:56:44;;;;;;;;;;;;;;;;;;5001678;28;19914;-93
2024/02/12 11:59:09;;;;;;;;;;;;;;;;;;5001174;28;19914;-92
2024/02/12 12:01:35;;;;;;;;;;;;;;;;;;5000853;28;20275;-93
2024/02/12 12:04:01;;;;;;;;;;;;;;;;;;5001038;28;19945;-93
2024/02/12 12:06:33;;;;;;;;;;;;;;;;;;5000545;28;19920;-92
2024/02/12 12:08:59;;;;;;;;;;;;;;;;;;5001595;28;19909;-92
2024/02/12 12:11:24;;;;;;;;;;;;;;;;;;5001145;28;20299;-92
2024/02/12 12:13:59;;;;;;;;;;;;;;;;;;5001253;28;19918;-92
2024/02/12 12:16:27;;;;;;;;;;;;;;;;;;5001143;28;19913;-92
2024/02/12 12:18:53;;;;;;;;;;;;;;;;;;5001132;28;19913;-92
2024/02/12 12:21:18;;;;;;;;;;;;;;;;;;5000939;28;19917;-93
2024/02/12 12:23:44;;;;;;;;;;;;;;;;;;5001017;28;20265;-93
2024/02/12 12:26:10;;;;;;;;;;;;;;;;;;5000743;28;19920;-93
2024/02/12 12:28:37;;;;;;;;;;;;;;;;;;5000076;28;19919;-93
2024/02/12 12:31:02;;;;;;;;;;;;;;;;;;4991378;28;19917;-93
2024/02/12 12:33:28;;;;;;;;;;;;;;;;;;5000957;28;19921;-94
2024/02/12 12:35:54;;;;;;;;;;;;;;;;;;5033681;28;19964;-93
2024/02/12 12:38:20;;;;;;;;;;;;;;;;;;5034271;28;19914;-93
2024/02/12 12:40:46;;;;;;;;;;;;;;;;;;5033198;28;19920;-93
2024/02/12 12:43:11;;;;;;;;;;;;;;;;;;4989484;28;20356;-93
2024/02/12 17:13:21;;;;;;;;;;;;;;;;;;5099467;23;20020;-93
2024/02/12 17:15:49;;;;;;;;;;;;;;;;;;4978223;28;19922;-95
2024/02/12 17:18:14;;;;;;;;;;;;;;;;;;4965542;28;20000;-90
2024/02/12 17:20:41;;;;;;;;;;;;;;;;;;4963020;28;20363;-90
2024/02/12 17:23:11;;;;;;;;;;;;;;;;;;4968972;28;20486;-93
2024/02/12 17:25:39;;;;;;;;;;;;;;;;;;4962228;28;19914;-96
2024/02/12 17:28:04;;;;;;;;;;;;;;;;;;4961255;28;19921;-96
2024/02/12 17:30:31;;;;;;;;;;;;;;;;;;4961663;28;19918;-96
2024/02/12 17:32:56;;;;;;;;;;;;;;;;;;4969699;28;19914;-95
2024/02/12 17:35:22;;;;;;;;;;;;;;;;;;4968183;28;19914;-96
2024/02/12 17:37:48;;;;;;;;;;;;;;;;;;4966933;28;20292;-96
2024/02/12 17:40:14;;;;;;;;;;;;;;;;;;4966842;28;19965;-94
2024/02/12 17:42:39;;;;;;;;;;;;;;;;;;4985347;28;19914;-92
2024/02/12 17:45:06;;;;;;;;;;;;;;;;;;4963508;28;19914;-93
2024/02/12 17:47:32;;;;;;;;;;;;;;;;;;4960590;28;19921;-92
2024/02/12 17:49:57;;;;;;;;;;;;;;;;;;4961128;28;19917;-95
2024/02/12 17:52:22;;;;;;;;;;;;;;;;;;4960827;28;19949;-92
2024/02/12 17:54:48;;;;;;;;;;;;;;;;;;4960598;28;20373;-95
2024/02/12 17:57:14;;;;;;;;;;;;;;;;;;4960886;28;19953;-95
2024/02/12 17:59:40;;;;;;;;;;;;;;;;;;4960277;28;19917;-94
2024/02/12 18:02:05;;;;;;;;;;;;;;;;;;4961290;28;19914;-93
2024/02/12 18:04:31;;;;;;;;;;;;;;;;;;4960829;28;20008;-96
2024/02/12 18:06:58;;;;;;;;;;;;;;;;;;4959811;28;19922;-95
2024/02/12 18:09:24;;;;;;;;;;;;;;;;;;4966139;28;19914;-96
2024/02/12 18:11:50;;;;;;;;;;;;;;;;;;4961183;28;19914;-94
2024/02/12 18:14:15;;;;;;;;;;;;;;;;;;4959892;28;20333;-95
2024/02/12 18:16:40;;;;;;;;;;;;;;;;;;4956803;28;19925;-94
2024/02/12 18:19:05;;;;;;;;;;;;;;;;;;4966989;28;19914;-95
2024/02/12 18:21:31;;;;;;;;;;;;;;;;;;4956425;28;19913;-95
2024/02/12 18:23:56;;;;;;;;;;;;;;;;;;4960278;28;19920;-95
2024/02/12 18:26:23;;;;;;;;;;;;;;;;;;4976653;28;19965;-95
2024/02/12 18:28:49;;;;;;;;;;;;;;;;;;4960003;28;19937;-96
2024/02/12 18:31:14;;;;;;;;;;;;;;;;;;4960890;28;19914;-96
2024/02/12 18:33:40;;;;;;;;;;;;;;;;;;4960741;28;19918;-94
2024/02/12 18:36:06;;;;;;;;;;;;;;;;;;4960314;28;19914;-95
2024/02/12 18:38:34;;;;;;;;;;;;;;;;;;4960644;28;19918;-96
2024/02/12 18:41:00;;;;;;;;;;;;;;;;;;4957735;28;19918;-95
2024/02/12 18:43:26;;;;;;;;;;;;;;;;;;4945020;29;19937;-96
2024/02/12 18:45:54;;;;;;;;;;;;;;;;;;4940264;29;19922;-94
2024/02/12 18:48:20;;;;;;;;;;;;;;;;;;4940483;29;19914;-94
2024/02/12 18:50:45;;;;;;;;;;;;;;;;;;4940589;29;19979;-94
2024/02/12 18:53:11;;;;;;;;;;;;;;;;;;4940203;29;19918;-93
2024/02/12 18:55:36;;;;;;;;;;;;;;;;;;4940246;29;19914;-93
2024/02/12 18:58:02;;;;;;;;;;;;;;;;;;4940109;29;19950;-94
2024/02/12 19:00:27;;;;;;;;;;;;;;;;;;4956799;29;20336;-92
2024/02/12 19:02:53;;;;;;;;;;;;;;;;;;4940281;29;19921;-95
2024/02/12 19:05:21;;;;;;;;;;;;;;;;;;4940307;29;19991;-93
2024/02/12 19:07:46;;;;;;;;;;;;;;;;;;4939886;29;19914;-95
2024/02/12 19:10:15;;;;;;;;;;;;;;;;;;4940259;29;19915;-92
2024/02/12 19:12:41;;;;;;;;;;;;;;;;;;4940203;29;19915;-94
2024/02/12 19:15:08;;;;;;;;;;;;;;;;;;4954066;28;19918;-95
2024/02/12 19:17:34;;;;;;;;;;;;;;;;;;4963202;28;20373;-94
2024/02/12 19:19:59;;;;;;;;;;;;;;;;;;4959573;28;20016;-96
2024/02/12 19:22:24;;;;;;;;;;;;;;;;;;4964493;29;19997;-94
2024/02/12 19:24:50;;;;;;;;;;;;;;;;;;4958864;29;19914;-91
2024/02/12 19:27:15;;;;;;;;;;;;;;;;;;4972127;28;19919;-90
2024/02/12 19:29:42;;;;;;;;;;;;;;;;;;4975521;28;19922;-89
2024/02/12 19:32:18;;;;;;;;;;;;;;;;;;4971226;28;19922;-89
2024/02/12 19:34:58;;;;;;;;;;;;;;;;;;4972633;29;19918;-95
2024/02/12 19:37:26;;;;;;;;;;;;;;;;;;4976118;28;19921;-96
2024/02/12 19:39:51;;;;;;;;;;;;;;;;;;4972895;29;19930;-96
2024/02/12 19:42:20;;;;;;;;;;;;;;;;;;4971199;28;19942;-94
2024/02/12 19:44:46;;;;;;;;;;;;;;;;;;4977834;28;19914;-89
2024/02/12 19:47:17;;;;;;;;;;;;;;;;;;4980226;28;20353;-95
2024/02/12 19:49:43;;;;;;;;;;;;;;;;;;4973648;29;19921;-88
2024/02/12 19:52:23;;;;;;;;;;;;;;;;;;4973342;29;19918;-88
2024/02/12 19:54:49;;;;;;;;;;;;;;;;;;4969675;28;19914;-94
2024/02/12 19:57:15;;;;;;;;;;;;;;;;;;4975821;28;20345;-93
2024/02/12 19:59:40;;;;;;;;;;;;;;;;;;4972428;28;19949;-94
2024/02/12 20:02:05;;;;;;;;;;;;;;;;;;4977725;28;19910;-93
2024/02/12 20:04:33;;;;;;;;;;;;;;;;;;4977725;28;19921;-93
2024/02/12 20:06:59;;;;;;;;;;;;;;;;;;4977730;28;20408;-92
2024/02/12 20:09:24;;;;;;;;;;;;;;;;;;4977834;28;19968;-92
2024/02/12 20:12:00;;;;;;;;;;;;;;;;;;4979404;28;19926;-88
2024/02/12 20:14:26;;;;;;;;;;;;;;;;;;4983083;28;19918;-88
2024/02/12 20:16:56;;;;;;;;;;;;;;;;;;4977496;28;19918;-88
2024/02/12 20:19:27;;;;;;;;;;;;;;;;;;4977948;28;20296;-88
2024/02/12 20:21:57;;;;;;;;;;;;;;;;;;4978749;28;20277;-88
2024/02/12 20:24:43;;;;;;;;;;;;;;;;;;4978878;28;19921;-88
2024/02/12 20:27:10;;;;;;;;;;;;;;;;;;4977676;28;19989;-89
2024/02/12 20:29:36;;;;;;;;;;;;;;;;;;4978788;28;20021;-89
2024/02/12 20:32:02;;;;;;;;;;;;;;;;;;4978997;28;19913;-89
2024/02/12 20:34:30;;;;;;;;;;;;;;;;;;4979716;28;20436;-89
2024/02/12 20:36:56;;;;;;;;;;;;;;;;;;4979510;28;20361;-89
2024/02/12 20:39:23;;;;;;;;;;;;;;;;;;4977954;28;19914;-89
2024/02/12 20:41:49;;;;;;;;;;;;;;;;;;4977316;28;20353;-87
2024/02/12 20:44:15;;;;;;;;;;;;;;;;;;4979523;28;19920;-88
2024/02/12 20:46:44;;;;;;;;;;;;;;;;;;4970193;28;19914;-88
2024/02/12 20:49:10;;;;;;;;;;;;;;;;;;4976306;28;20262;-88
2024/02/12 20:51:35;;;;;;;;;;;;;;;;;;4976400;28;19963;-87
2024/02/12 20:54:01;;;;;;;;;;;;;;;;;;4976598;28;19953;-89
2024/02/12 20:56:28;;;;;;;;;;;;;;;;;;4982358;23;19926;-88
2024/02/12 20:58:54;;;;;;;;;;;;;;;;;;4973421;28;19926;-89
2024/02/12 21:01:19;;;;;;;;;;;;;;;;;;4977958;28;19997;-88
2024/02/12 21:03:46;;;;;;;;;;;;;;;;;;4978295;28;19920;-88
2024/02/12 21:06:13;;;;;;;;;;;;;;;;;;4976477;28;19920;-89
2024/02/12 21:08:39;;;;;;;;;;;;;;;;;;4977179;28;20388;-89
2024/02/12 21:11:09;;;;;;;;;;;;;;;;;;4977467;28;19961;-88
2024/02/12 21:13:38;;;;;;;;;;;;;;;;;;4983929;23;20292;-88
2024/02/12 21:16:05;;;;;;;;;;;;;;;;;;4960209;28;20000;-88
2024/02/12 21:18:32;;;;;;;;;;;;;;;;;;4960179;28;20017;-88
2024/02/12 21:20:57;;;;;;;;;;;;;;;;;;4977384;28;20352;-88
2024/02/12 21:23:23;;;;;;;;;;;;;;;;;;4977627;28;19921;-88
2024/02/12 21:25:50;;;;;;;;;;;;;;;;;;4992258;28;20269;-88
2024/02/12 21:28:27;;;;;;;;;;;;;;;;;;5012251;23;19944;-88
2024/02/12 21:30:53;;;;;;;;;;;;;;;;;;4978101;28;20372;-88
2024/02/12 21:33:24;;;;;;;;;;;;;;;;;;4979043;28;20008;-88
2024/02/12 21:35:50;;;;;;;;;;;;;;;;;;4978959;28;19920;-88
2024/02/12 21:38:15;;;;;;;;;;;;;;;;;;4996848;28;19909;-88
2024/02/12 21:40:49;;;;;;;;;;;;;;;;;;4991110;28;19920;-89
2024/02/12 21:43:19;;;;;;;;;;;;;;;;;;4980758;28;20439;-89
2024/02/12 21:45:46;;;;;;;;;;;;;;;;;;4978890;28;20260;-89
2024/02/12 21:48:11;;;;;;;;;;;;;;;;;;4997097;28;20383;-89
2024/02/12 21:50:38;;;;;;;;;;;;;;;;;;4963200;28;19914;-89
2024/02/12 21:53:03;;;;;;;;;;;;;;;;;;4978756;28;20411;-88
2024/02/12 21:55:29;;;;;;;;;;;;;;;;;;4994907;28;19913;-89
2024/02/12 21:57:56;;;;;;;;;;;;;;;;;;4978331;28;19965;-89
2024/02/12 22:00:24;;;;;;;;;;;;;;;;;;4985726;23;19920;-89
2024/02/12 22:02:51;;;;;;;;;;;;;;;;;;4971021;28;19957;-89
2024/02/12 22:05:19;;;;;;;;;;;;;;;;;;4976532;28;19921;-89
2024/02/12 22:07:44;;;;;;;;;;;;;;;;;;4976600;28;20320;-89
2024/02/12 22:10:11;;;;;;;;;;;;;;;;;;4975707;28;19914;-88
2024/02/12 22:12:36;;;;;;;;;;;;;;;;;;4975130;28;20365;-88
2024/02/12 22:15:01;;;;;;;;;;;;;;;;;;4976241;28;19936;-88
2024/02/12 22:17:26;;;;;;;;;;;;;;;;;;4974972;28;19914;-88
2024/02/12 22:19:53;;;;;;;;;;;;;;;;;;4974964;28;19914;-88
2024/02/12 22:22:19;;;;;;;;;;;;;;;;;;4975141;28;19918;-88
2024/02/12 22:24:47;;;;;;;;;;;;;;;;;;4976360;28;19920;-88
2024/02/12 22:27:13;;;;;;;;;;;;;;;;;;4975024;28;19961;-88
2024/02/12 22:29:38;;;;;;;;;;;;;;;;;;4958641;28;19918;-88
2024/02/12 22:32:04;;;;;;;;;;;;;;;;;;4974766;28;19914;-88
2024/02/12 22:34:31;;;;;;;;;;;;;;;;;;4975064;28;19982;-88
2024/02/12 22:36:56;;;;;;;;;;;;;;;;;;4974784;28;19917;-88
2024/02/12 22:39:21;;;;;;;;;;;;;;;;;;4974908;28;19910;-89
2024/02/12 22:41:47;;;;;;;;;;;;;;;;;;4974671;28;19920;-89
2024/02/12 22:44:12;;;;;;;;;;;;;;;;;;4976385;28;19913;-88
2024/02/12 22:46:37;;;;;;;;;;;;;;;;;;4991291;23;19925;-88
2024/02/12 22:49:06;;;;;;;;;;;;;;;;;;5024230;23;20280;-89
2024/02/12 22:51:31;;;;;;;;;;;;;;;;;;4994249;28;19910;-88
2024/02/12 22:53:59;;;;;;;;;;;;;;;;;;4993738;28;19924;-89
2024/02/12 22:56:24;;;;;;;;;;;;;;;;;;4994037;28;19964;-88
2024/02/12 22:58:50;;;;;;;;;;;;;;;;;;4995178;28;19917;-88
2024/02/12 23:01:15;;;;;;;;;;;;;;;;;;4993945;28;19921;-88
2024/02/12 23:03:41;;;;;;;;;;;;;;;;;;4995154;28;19914;-88
2024/02/12 23:06:06;;;;;;;;;;;;;;;;;;4995339;28;19924;-88
2024/02/12 23:08:32;;;;;;;;;;;;;;;;;;4982389;28;19921;-90
2024/02/12 23:10:58;;;;;;;;;;;;;;;;;;4990893;28;19918;-89
2024/02/12 23:13:24;;;;;;;;;;;;;;;;;;4980199;28;19918;-89
